Time;durP1;ratioP1;P1;durP2;ratioP2;P2;SDS_P1;SDS_P2;PMS_P1;PMS_P2;Temp;Humidity;BMP_temperature;BMP_pressure;BME280_temperature;BME280_humidity;BME280_pressure;Samples;Min_cycle;Max_cycle;Signal;HPM_P1;HPM_P2
2022/11/23 00:00:15;;;;;;;5.67;2.80;;;;;;;3.79;100.00;152336.22;4992540;28;20440;-77
2022/11/23 00:03:01;;;;;;;3.60;2.30;;;;;;;3.76;100.00;152329.78;4994889;28;20479;-76
2022/11/23 00:05:46;;;;;;;9.00;2.67;;;;;;;3.71;100.00;152315.69;4989824;28;20931;-77
2022/11/23 00:08:33;;;;;;;4.83;2.70;;;;;;;3.72;100.00;152318.22;4990819;28;20465;-77
2022/11/23 00:11:19;;;;;;;3.67;2.93;;;;;;;3.69;100.00;152313.09;4990485;28;22414;-77
2022/11/23 00:14:04;;;;;;;5.40;2.63;;;;;;;3.70;100.00;152314.38;4995092;28;20929;-77
2022/11/23 00:16:49;;;;;;;4.20;2.87;;;;;;;3.69;100.00;152311.78;4992090;28;20472;-77
2022/11/23 00:19:34;;;;;;;3.87;2.20;;;;;;;3.68;100.00;152309.19;4990835;28;20445;-77
2022/11/23 00:22:20;;;;;;;4.40;2.90;;;;;;;3.69;100.00;152313.09;4992059;28;20476;-77
2022/11/23 00:25:08;;;;;;;4.50;2.40;;;;;;;3.69;100.00;152313.09;4989996;28;20456;-77
2022/11/23 00:27:53;;;;;;;4.40;2.70;;;;;;;3.71;100.00;152315.69;4978654;28;20457;-77
2022/11/23 00:30:39;;;;;;;3.87;2.27;;;;;;;3.65;100.00;152302.75;4984166;28;20787;-77
2022/11/23 00:33:24;;;;;;;3.00;2.33;;;;;;;3.61;100.00;152292.47;4978267;28;20425;-76
2022/11/23 00:36:13;;;;;;;4.30;2.47;;;;;;;3.58;100.00;152283.47;4992935;28;20516;-77
2022/11/23 00:38:58;;;;;;;6.00;2.33;;;;;;;3.55;100.00;152277.03;4994532;28;20448;-77
2022/11/23 00:41:44;;;;;;;3.10;2.40;;;;;;;3.52;100.00;152268.03;4993336;28;20461;-77
2022/11/23 00:44:30;;;;;;;3.90;2.13;;;;;;;3.57;100.00;152282.16;4983851;28;20581;-77
2022/11/23 00:47:15;;;;;;;4.10;2.77;;;;;;;3.56;100.00;152279.63;4975134;28;20521;-77
2022/11/23 00:50:00;;;;;;;3.70;2.40;;;;;;;3.58;100.00;152284.75;4993347;28;20416;-77
2022/11/23 00:52:46;;;;;;;4.20;2.60;;;;;;;3.60;100.00;152289.88;4978294;28;20443;-77
2022/11/23 00:55:31;;;;;;;4.60;2.30;;;;;;;3.61;100.00;152291.19;4992353;28;20979;-77
2022/11/23 00:58:18;;;;;;;6.90;2.80;;;;;;;3.61;100.00;152292.47;4974565;28;20433;-77
2022/11/23 01:01:06;;;;;;;4.97;2.33;;;;;;;3.63;100.00;152297.63;4989169;28;20453;-77
2022/11/23 01:03:54;;;;;;;4.07;2.20;;;;;;;3.68;100.00;152309.19;4987000;28;20869;-77
2022/11/23 01:06:40;;;;;;;3.60;1.67;;;;;;;3.71;100.00;152315.69;4993248;28;20401;-77
2022/11/23 01:09:26;;;;;;;2.73;2.23;;;;;;;3.71;100.00;152316.91;4992451;28;20573;-77
2022/11/23 01:12:11;;;;;;;5.17;3.10;;;;;;;3.73;100.00;152322.13;4991984;28;21039;-76
2022/11/23 01:14:58;;;;;;;3.60;2.60;;;;;;;3.69;100.00;152313.09;4991575;28;20421;-77
2022/11/23 01:17:43;;;;;;;3.60;2.63;;;;;;;3.74;100.00;152324.66;4978814;28;20984;-77
2022/11/23 01:20:29;;;;;;;3.33;2.80;;;;;;;3.77;100.00;152331.09;4990100;28;20460;-77
2022/11/23 01:23:14;;;;;;;5.77;2.67;;;;;;;3.75;100.00;152327.25;4977634;28;20477;-77
2022/11/23 01:26:04;;;;;;;5.63;3.27;;;;;;;3.74;100.00;152323.34;4974341;28;20418;-77
2022/11/23 01:28:50;;;;;;;4.97;2.77;;;;;;;3.72;100.00;152318.22;4993245;28;20453;-77
2022/11/23 01:31:37;;;;;;;2.80;2.13;;;;;;;3.75;100.00;152325.94;4990321;28;20536;-77
2022/11/23 01:34:24;;;;;;;2.90;2.50;;;;;;;3.74;100.00;152324.66;4990490;28;20429;-77
2022/11/23 01:37:09;;;;;;;2.90;2.40;;;;;;;3.76;100.00;152329.78;4982054;28;20910;-77
2022/11/23 01:39:54;;;;;;;3.27;2.33;;;;;;;3.77;100.00;152331.09;4977692;28;20432;-77
2022/11/23 01:42:44;;;;;;;4.40;2.33;;;;;;;3.76;100.00;152329.78;4991191;28;20990;-77
2022/11/23 01:45:38;;;;;;;2.47;1.67;;;;;;;3.75;100.00;152325.94;4979853;28;20425;-75
2022/11/23 01:48:27;;;;;;;3.00;2.20;;;;;;;3.77;100.00;152331.09;4991090;28;20608;-77
2022/11/23 01:51:15;;;;;;;3.23;2.10;;;;;;;3.76;100.00;152328.53;4992741;28;20531;-76
2022/11/23 01:54:02;;;;;;;3.90;2.27;;;;;;;3.77;100.00;152331.09;4992898;28;20979;-77
2022/11/23 01:56:53;;;;;;;2.40;1.77;;;;;;;3.79;100.00;152337.53;4990503;28;20453;-76
2022/11/23 01:59:39;;;;;;;4.93;1.90;;;;;;;3.79;100.00;152337.53;4977898;28;20545;-76
2022/11/23 02:02:26;;;;;;;3.93;2.03;;;;;;;3.84;100.00;152350.41;4978907;28;20548;-76
2022/11/23 02:05:14;;;;;;;2.40;1.50;;;;;;;3.80;100.00;152338.81;4970599;28;20785;-77
2022/11/23 02:08:04;;;;;;;4.53;2.50;;;;;;;3.78;100.00;152334.97;4973197;28;20821;-76
2022/11/23 02:10:49;;;;;;;2.87;2.00;;;;;;;3.79;100.00;152337.53;4972095;28;20910;-76
2022/11/23 02:13:34;;;;;;;2.80;1.90;;;;;;;3.78;100.00;152333.69;4980138;28;20444;-76
2022/11/23 02:16:21;;;;;;;3.23;2.57;;;;;;;3.75;100.00;152325.94;4990454;28;20472;-76
2022/11/23 02:19:09;;;;;;;3.03;2.10;;;;;;;3.76;100.00;152328.53;4993468;28;20460;-77
2022/11/23 02:21:56;;;;;;;6.33;2.33;;;;;;;3.74;100.00;152323.34;4975491;28;20429;-76
2022/11/23 02:24:46;;;;;;;2.13;1.90;;;;;;;3.69;100.00;152311.78;4986583;28;20795;-77
2022/11/23 02:27:33;;;;;;;2.40;2.03;;;;;;;3.63;100.00;152297.63;4990899;28;20443;-76
2022/11/23 02:30:19;;;;;;;5.30;2.17;;;;;;;3.63;100.00;152296.31;4990144;28;20521;-76
2022/11/23 02:33:05;;;;;;;5.77;2.03;;;;;;;3.64;100.00;152300.22;4994514;28;20491;-76
2022/11/23 02:35:51;;;;;;;3.00;2.30;;;;;;;3.63;100.00;152297.63;4995075;28;20444;-76
2022/11/23 02:38:36;;;;;;;4.73;2.33;;;;;;;3.63;100.00;152296.31;4995717;28;20622;-76
2022/11/23 02:41:22;;;;;;;3.60;2.37;;;;;;;3.57;100.00;152282.16;4994058;28;20530;-77
2022/11/23 02:44:18;;;;;;;3.70;2.47;;;;;;;3.53;100.00;152271.88;4995107;28;20560;-76
2022/11/23 02:47:04;;;;;;;4.27;2.00;;;;;;;3.48;100.00;152257.72;4995406;28;20564;-76
2022/11/23 02:49:50;;;;;;;3.47;2.20;;;;;;;3.48;100.00;152259.00;4991903;28;20449;-77
2022/11/23 02:52:36;;;;;;;3.37;2.30;;;;;;;3.42;100.00;152243.56;4986583;28;20449;-76
2022/11/23 02:55:21;;;;;;;3.97;2.30;;;;;;;3.36;100.00;152228.09;4992529;28;20439;-76
2022/11/23 02:58:07;;;;;;;3.37;2.20;;;;;;;3.33;100.00;152220.41;5011825;28;20982;-76
2022/11/23 03:00:54;;;;;;;3.37;1.90;;;;;;;3.32;100.00;152217.81;4997728;28;20445;-77
2022/11/23 03:03:40;;;;;;;2.70;1.93;;;;;;;3.25;100.00;152199.81;4993495;28;20452;-76
2022/11/23 03:06:26;;;;;;;3.30;2.50;;;;;;;3.24;100.00;152195.94;4980599;28;20436;-76
2022/11/23 03:09:11;;;;;;;2.60;1.90;;;;;;;3.18;100.00;152180.53;4995335;28;20458;-76
2022/11/23 03:11:56;;;;;;;3.43;2.10;;;;;;;3.20;100.00;152186.97;4988692;28;20480;-76
2022/11/23 03:14:44;;;;;;;2.70;1.90;;;;;;;3.19;100.00;152183.06;4989651;28;20432;-76
2022/11/23 03:17:32;;;;;;;4.93;2.30;;;;;;;3.18;100.00;152180.53;4992334;28;20524;-76
2022/11/23 03:20:18;;;;;;;2.40;2.03;;;;;;;3.17;100.00;152177.94;4979007;28;20467;-76
2022/11/23 03:23:06;;;;;;;2.80;1.90;;;;;;;3.16;100.00;152175.34;4970324;28;20477;-76
2022/11/23 03:25:55;;;;;;;2.80;1.80;;;;;;;3.15;100.00;152174.03;4981178;28;20453;-76
2022/11/23 03:28:40;;;;;;;2.30;2.07;;;;;;;3.14;100.00;152171.50;4983404;28;20450;-76
2022/11/23 03:31:26;;;;;;;4.57;2.37;;;;;;;3.15;100.00;152174.03;4972962;28;20818;-77
2022/11/23 03:34:14;;;;;;;4.37;2.33;;;;;;;3.13;100.00;152168.91;4981447;28;20457;-76
2022/11/23 03:36:59;;;;;;;3.10;2.43;;;;;;;3.14;100.00;152171.50;4970577;28;20449;-77
2022/11/23 03:39:44;;;;;;;2.50;1.97;;;;;;;3.13;100.00;152167.63;4993438;28;20549;-76
2022/11/23 03:42:49;;;;;;;2.73;2.03;;;;;;;3.11;100.00;152163.78;4994013;28;20949;-76
2022/11/23 03:45:34;;;;;;;4.57;2.20;;;;;;;3.10;100.00;152161.19;5014747;28;20436;-76
2022/11/23 03:48:20;;;;;;;4.23;2.00;;;;;;;3.10;100.00;152161.19;4974830;28;20520;-76
2022/11/23 03:51:08;;;;;;;2.80;1.70;;;;;;;3.10;100.00;152161.19;4975815;28;20766;-77
2022/11/23 03:53:54;;;;;;;3.67;1.90;;;;;;;3.12;100.00;152166.38;4973274;28;20835;-76
2022/11/23 03:56:39;;;;;;;3.00;1.87;;;;;;;3.14;100.00;152171.50;4977635;28;20568;-76
2022/11/23 03:59:25;;;;;;;2.90;1.90;;;;;;;3.16;100.00;152176.66;4979990;28;20409;-76
2022/11/23 04:02:11;;;;;;;2.70;1.87;;;;;;;3.21;100.00;152189.50;4991991;28;20967;-76
2022/11/23 04:05:05;;;;;;;2.90;1.93;;;;;;;3.26;100.00;152201.06;4996141;28;20528;-75
2022/11/23 04:08:17;;;;;;;4.90;2.07;;;;;;;3.23;100.00;152194.63;4995036;28;20576;-77
2022/11/23 04:11:02;;;;;;;2.40;1.60;;;;;;;3.28;100.00;152207.56;4993753;28;20495;-77
2022/11/23 04:13:55;;;;;;;4.27;1.83;;;;;;;3.32;100.00;152216.53;4981641;28;21125;-77
2022/11/23 04:16:40;;;;;;;2.87;1.70;;;;;;;3.35;100.00;152225.56;4979296;28;20460;-75
2022/11/23 04:19:26;;;;;;;3.40;2.03;;;;;;;3.36;100.00;152226.84;5003647;28;20440;-74
2022/11/23 04:22:12;;;;;;;6.23;1.40;;;;;;;3.37;100.00;152230.69;5001498;28;20441;-77
2022/11/23 04:25:01;;;;;;;2.30;1.50;;;;;;;3.38;100.00;152233.28;4993202;28;20767;-76
2022/11/23 04:27:47;;;;;;;4.00;2.00;;;;;;;3.36;100.00;152228.09;4979016;28;20529;-77
2022/11/23 04:30:32;;;;;;;4.07;2.07;;;;;;;3.39;100.00;152235.81;4977825;28;20449;-77
2022/11/23 04:33:17;;;;;;;5.83;1.53;;;;;;;3.38;100.00;152233.28;5008682;28;20444;-76
2022/11/23 04:36:03;;;;;;;3.17;2.00;;;;;;;3.39;100.00;152235.81;4971929;28;20445;-76
2022/11/23 04:38:49;;;;;;;2.00;1.63;;;;;;;3.39;100.00;152235.81;4996710;28;20461;-77
2022/11/23 04:41:40;;;;;;;1.43;1.33;;;;;;;3.37;100.00;152229.41;4977996;28;20440;-76
2022/11/23 04:44:25;;;;;;;2.03;1.60;;;;;;;3.35;100.00;152224.25;4960165;28;20457;-77
2022/11/23 04:47:17;;;;;;;3.43;1.57;;;;;;;3.34;100.00;152222.97;4974370;28;20960;-76
2022/11/23 04:50:05;;;;;;;5.67;1.77;;;;;;;3.33;100.00;152219.13;4976875;28;20449;-76
2022/11/23 04:52:51;;;;;;;1.90;1.23;;;;;;;3.26;100.00;152202.38;4969564;28;20763;-76
2022/11/23 04:55:41;;;;;;;4.17;1.37;;;;;;;3.23;100.00;152194.63;4978064;28;20807;-76
2022/11/23 04:58:28;;;;;;;4.03;1.80;;;;;;;3.19;100.00;152183.06;4978025;28;20681;-76
2022/11/23 05:01:16;;;;;;;3.30;1.63;;;;;;;3.17;100.00;152179.22;4991075;28;20456;-76
2022/11/23 05:04:22;;;;;;;3.10;1.80;;;;;;;3.18;100.00;152181.78;4992771;28;20465;-77
2022/11/23 05:07:08;;;;;;;3.90;1.70;;;;;;;3.17;100.00;152179.22;4977613;28;20448;-76
2022/11/23 05:09:54;;;;;;;3.90;1.50;;;;;;;3.17;100.00;152179.22;4965778;28;20503;-76
2022/11/23 05:12:40;;;;;;;2.27;1.43;;;;;;;3.16;100.00;152175.34;4972313;28;20485;-77
2022/11/23 05:15:28;;;;;;;2.30;1.60;;;;;;;3.18;100.00;152181.78;4971867;28;20410;-76
2022/11/23 05:18:13;;;;;;;4.10;1.80;;;;;;;3.20;100.00;152186.97;4976495;28;20975;-76
2022/11/23 05:20:59;;;;;;;2.60;1.97;;;;;;;3.22;100.00;152192.09;4992363;28;20401;-77
2022/11/23 05:23:44;;;;;;;2.57;1.70;;;;;;;3.25;100.00;152198.53;4991447;28;20488;-76
2022/11/23 05:26:30;;;;;;;3.40;1.60;;;;;;;3.28;100.00;152207.56;4978174;28;20966;-76
2022/11/23 05:29:15;;;;;;;2.10;1.63;;;;;;;3.27;100.00;152204.97;5005902;28;20467;-77
2022/11/23 05:32:01;;;;;;;2.73;2.30;;;;;;;3.27;100.00;152204.97;4995831;28;20464;-76
2022/11/23 05:34:47;;;;;;;3.90;1.70;;;;;;;3.28;100.00;152207.56;4975060;28;20492;-76
2022/11/23 05:37:34;;;;;;;4.07;2.07;;;;;;;3.27;100.00;152203.66;4988277;28;20461;-77
2022/11/23 05:40:22;;;;;;;2.37;1.90;;;;;;;3.25;100.00;152199.81;4979543;28;20442;-76
2022/11/23 05:43:11;;;;;;;2.80;1.83;;;;;;;3.26;100.00;152202.38;4978891;28;20487;-76
2022/11/23 05:45:59;;;;;;;4.07;1.87;;;;;;;3.25;100.00;152199.81;4988949;28;20468;-76
2022/11/23 05:48:45;;;;;;;2.10;1.60;;;;;;;3.26;100.00;152202.38;4958213;28;20788;-76
2022/11/23 05:51:32;;;;;;;3.33;1.80;;;;;;;3.28;100.00;152207.56;4973438;28;20810;-76
2022/11/23 05:54:19;;;;;;;2.40;1.90;;;;;;;3.31;100.00;152215.22;4974735;28;20449;-77
2022/11/23 05:57:16;;;;;;;2.17;1.50;;;;;;;3.33;100.00;152220.41;4973009;28;20453;-76
2022/11/23 06:00:03;;;;;;;4.00;1.80;;;;;;;3.36;100.00;152226.84;4978894;28;20914;-77
2022/11/23 06:02:59;;;;;;;3.63;1.70;;;;;;;3.37;100.00;152229.41;4991622;28;20820;-76
2022/11/23 06:05:48;;;;;;;5.20;1.90;;;;;;;3.39;100.00;152235.81;4981706;28;20940;-76
2022/11/23 06:08:35;;;;;;;2.07;1.70;;;;;;;3.41;100.00;152239.72;4988168;28;20440;-76
2022/11/23 06:11:21;;;;;;;3.37;1.50;;;;;;;3.43;100.00;152246.16;4976373;28;20492;-77
2022/11/23 06:14:06;;;;;;;2.70;2.10;;;;;;;3.46;100.00;152253.88;4973871;28;20794;-76
2022/11/23 06:16:52;;;;;;;2.20;1.97;;;;;;;3.47;100.00;152255.13;4984546;28;20461;-76
2022/11/23 06:19:54;;;;;;;2.83;1.80;;;;;;;3.48;100.00;152259.00;4969434;28;21188;-76
2022/11/23 06:22:42;;;;;;;2.90;1.60;;;;;;;3.47;100.00;152256.44;4990020;28;20512;-76
2022/11/23 06:25:27;;;;;;;2.77;1.60;;;;;;;3.47;100.00;152255.13;4985991;28;20437;-77
2022/11/23 06:28:35;;;;;;;4.13;1.70;;;;;;;3.48;100.00;152259.00;4986627;28;20452;-77
2022/11/23 06:31:21;;;;;;;2.97;1.90;;;;;;;3.48;100.00;152259.00;4988058;28;20420;-77
2022/11/23 06:34:06;;;;;;;6.10;2.27;;;;;;;3.48;100.00;152259.00;4987763;28;20450;-76
2022/11/23 06:36:51;;;;;;;4.10;3.17;;;;;;;3.46;100.00;152253.88;4991248;28;21127;-76
2022/11/23 06:39:39;;;;;;;4.97;4.07;;;;;;;3.46;100.00;152252.59;4971074;28;20454;-77
2022/11/23 06:42:25;;;;;;;4.43;2.77;;;;;;;3.41;100.00;152241.00;5004564;28;20452;-77
2022/11/23 06:45:12;;;;;;;3.73;2.70;;;;;;;3.39;100.00;152235.81;4974246;28;20515;-77
2022/11/23 06:47:57;;;;;;;2.53;2.20;;;;;;;3.38;100.00;152233.28;4999951;28;21094;-77
2022/11/23 06:50:43;;;;;;;2.67;2.10;;;;;;;3.34;100.00;152221.66;4983195;28;20449;-76
2022/11/23 06:53:29;;;;;;;3.10;1.90;;;;;;;3.31;100.00;152215.22;4972982;28;20520;-77
2022/11/23 06:56:20;;;;;;;4.00;2.60;;;;;;;3.28;100.00;152206.25;5006278;28;20473;-86
2022/11/23 06:59:05;;;;;;;6.60;2.80;;;;;;;3.26;100.00;152202.38;4973874;28;20964;-86
2022/11/23 07:01:51;;;;;;;2.23;2.00;;;;;;;3.29;100.00;152210.09;4972995;28;20478;-86
2022/11/23 07:04:37;;;;;;;4.00;2.23;;;;;;;3.28;100.00;152206.25;4986202;28;20500;-86
2022/11/23 07:07:27;;;;;;;1.70;1.50;;;;;;;3.24;100.00;152197.22;4967544;28;20529;-86
2022/11/23 07:10:20;;;;;;;2.50;1.90;;;;;;;3.27;100.00;152203.66;4971126;28;20889;-86
2022/11/23 07:13:11;;;;;;;3.63;2.40;;;;;;;3.28;100.00;152206.25;4975851;28;20465;-86
2022/11/23 07:15:57;;;;;;;3.50;2.60;;;;;;;3.40;100.00;152238.41;4996650;28;20982;-86
2022/11/23 07:18:42;;;;;;;4.60;2.57;;;;;;;3.62;100.00;152293.78;4982481;28;20969;-86
2022/11/23 07:21:28;;;;;;;6.43;2.80;;;;;;;3.75;100.00;152327.25;4964001;28;20520;-86
2022/11/23 07:24:14;;;;;;;2.90;2.43;;;;;;;3.85;100.00;152353.00;4995661;28;20991;-86
2022/11/23 07:27:00;;;;;;;6.43;3.03;;;;;;;3.86;100.00;152354.28;4982664;28;20429;-86
2022/11/23 07:29:46;;;;;;;3.20;2.60;;;;;;;3.87;100.00;152356.81;4966591;28;20428;-86
2022/11/23 07:32:32;;;;;;;8.50;3.73;;;;;;;3.83;100.00;152347.84;4970277;28;20452;-86
2022/11/23 07:35:17;;;;;;;6.10;2.97;;;;;;;3.85;100.00;152353.00;4997291;28;20436;-86
2022/11/23 07:38:06;;;;;;;5.90;3.10;;;;;;;3.89;100.00;152363.25;4985127;28;20895;-86
2022/11/23 07:40:52;;;;;;;7.10;3.27;;;;;;;3.96;100.00;152380.03;4990859;28;20492;-86
2022/11/23 07:43:52;;;;;;;4.70;2.97;;;;;;;4.01;100.00;152394.19;4998451;28;20526;-86
2022/11/23 07:46:39;;;;;;;3.80;3.20;;;;;;;4.07;100.00;152408.38;4989949;28;20472;-85
2022/11/23 07:49:24;;;;;;;4.40;3.30;;;;;;;4.10;100.00;152416.09;4996811;28;20445;-86
2022/11/23 07:52:10;;;;;;;7.20;3.70;;;;;;;4.09;100.00;152414.81;4989389;28;20449;-86
2022/11/23 07:54:55;;;;;;;8.00;3.50;;;;;;;4.11;100.00;152418.66;4996704;28;20529;-86
2022/11/23 07:57:40;;;;;;;4.47;3.37;;;;;;;4.17;100.00;152434.13;4989763;28;20936;-86
2022/11/23 08:00:27;;;;;;;4.27;3.27;;;;;;;4.22;100.00;152447.00;4988285;28;20452;-86
2022/11/23 08:03:15;;;;;;;5.00;3.40;;;;;;;4.27;100.00;152461.16;4976786;28;20921;-87
2022/11/23 08:06:00;;;;;;;4.47;2.90;;;;;;;4.32;100.00;152474.03;4977582;28;20409;-86
2022/11/23 08:08:45;;;;;;;5.23;4.03;;;;;;;4.46;100.00;152507.53;4991234;28;20572;-86
2022/11/23 08:11:31;;;;;;;4.00;2.80;;;;;;;4.46;100.00;152508.81;4971822;28;20484;-86
2022/11/23 08:14:16;;;;;;;4.90;3.30;;;;;;;4.51;100.00;152520.41;4996374;28;20452;-86
2022/11/23 08:17:01;;;;;;;3.70;3.27;;;;;;;4.57;100.00;152537.19;4995870;28;20417;-86
2022/11/23 08:19:48;;;;;;;3.17;2.87;;;;;;;4.62;100.00;152548.75;4995308;28;20445;-86
2022/11/23 08:22:33;;;;;;;3.90;3.13;;;;;;;4.73;100.00;152577.13;4994489;28;20433;-86
2022/11/23 08:25:19;;;;;;;5.77;3.40;;;;;;;4.77;100.00;152588.69;4989861;28;20457;-86
2022/11/23 08:28:04;;;;;;;5.03;3.23;;;;;;;4.86;100.00;152610.63;4989008;28;20441;-86
2022/11/23 08:30:50;;;;;;;4.77;3.07;;;;;;;4.87;100.00;152614.47;4986591;28;20445;-86
2022/11/23 08:33:35;;;;;;;6.37;2.80;;;;;;;4.86;100.00;152611.91;4994919;28;20449;-87
2022/11/23 08:36:21;;;;;;;2.77;2.27;;;;;;;4.81;100.00;152599.03;4995002;28;20583;-86
2022/11/23 08:39:09;;;;;;;3.57;2.50;;;;;;;4.83;100.00;152604.16;4986448;28;20570;-86
2022/11/23 08:41:55;;;;;;;4.10;2.70;;;;;;;4.82;100.00;152601.56;4976234;28;20499;-86
2022/11/23 08:44:40;;;;;;;4.40;3.13;;;;;;;4.84;100.00;152606.72;4994213;28;20580;-86
2022/11/23 08:47:25;;;;;;;5.17;2.40;;;;;;;4.88;100.00;152617.06;4994396;28;20956;-86
2022/11/23 08:50:11;;;;;;;3.70;2.27;;;;;;;4.89;100.00;152619.66;4985364;28;20507;-86
2022/11/23 08:52:58;;;;;;;4.50;2.97;;;;;;;4.87;100.00;152614.47;5005953;28;20498;-86
2022/11/23 08:55:44;;;;;;;6.10;2.50;;;;;;;4.87;100.00;152614.47;5001493;28;20584;-86
2022/11/23 08:58:29;;;;;;;4.70;2.63;;;;;;;4.95;100.00;152632.53;4994907;28;20439;-86
2022/11/23 09:01:16;;;;;;;3.73;2.57;;;;;;;4.94;100.00;152631.22;4994916;28;20789;-86
2022/11/23 09:04:03;;;;;;;3.33;2.70;;;;;;;4.96;100.00;152635.06;4994527;28;20472;-86
2022/11/23 09:06:48;;;;;;;3.93;2.60;;;;;;;5.00;100.00;152645.41;4996028;28;20519;-86
2022/11/23 09:09:35;;;;;;;6.43;2.70;;;;;;;5.03;100.00;152654.41;5008678;28;20979;-86
2022/11/23 09:12:21;;;;;;;3.67;2.10;;;;;;;5.06;100.00;152662.16;4994648;28;20464;-86
2022/11/23 09:15:07;;;;;;;6.47;2.50;;;;;;;5.12;100.00;152676.31;4991324;28;20986;-86
2022/11/23 09:17:52;;;;;;;5.77;2.40;;;;;;;5.19;100.00;152694.41;4994764;28;20539;-86
2022/11/23 09:20:39;;;;;;;3.80;2.27;;;;;;;5.29;100.00;152721.47;4976899;28;20566;-86
2022/11/23 09:23:25;;;;;;;3.63;2.63;;;;;;;5.26;100.00;152712.44;4991645;28;20453;-86
2022/11/23 09:26:12;;;;;;;5.20;3.03;;;;;;;5.30;100.00;152722.72;4994792;28;20416;-86
2022/11/23 09:28:57;;;;;;;6.73;4.03;;;;;;;5.34;100.00;152733.06;4994101;28;20939;-86
2022/11/23 09:31:43;;;;;;;7.27;3.97;;;;;;;5.44;100.00;152758.84;4994319;28;20449;-86
2022/11/23 09:34:28;;;;;;;5.30;3.10;;;;;;;5.58;100.00;152794.97;4994983;28;20556;-87
2022/11/23 09:37:14;;;;;;;5.40;3.50;;;;;;;5.68;100.00;152819.44;4994362;28;20567;-87
2022/11/23 09:39:59;;;;;;;7.80;3.90;;;;;;;5.68;100.00;152819.44;4991723;28;20465;-86
2022/11/23 09:42:58;;;;;;;7.07;4.00;;;;;;;5.82;100.00;152855.56;4995341;28;20464;-86
2022/11/23 09:45:47;;;;;;;5.27;4.10;;;;;;;5.86;100.00;152867.22;5013769;28;20456;-86
2022/11/23 09:48:43;;;;;;;6.50;3.57;;;;;;;5.94;100.00;152887.84;5013893;28;20455;-87
2022/11/23 09:51:29;;;;;;;3.47;2.77;;;;;;;5.99;99.98;152900.75;4991544;28;20496;-87
2022/11/23 09:54:23;;;;;;;5.77;2.50;;;;;;;6.19;98.13;152949.78;4994240;28;20429;-87
2022/11/23 09:57:12;;;;;;;6.00;2.73;;;;;;;6.18;97.47;152947.19;4993729;28;20541;-87
2022/11/23 10:00:01;;;;;;;4.23;2.53;;;;;;;6.13;97.21;152936.88;4993325;28;20449;-87
2022/11/23 10:02:47;;;;;;;2.83;2.40;;;;;;;6.41;95.96;153007.81;4992066;28;20936;-86
2022/11/23 10:05:36;;;;;;;3.93;2.57;;;;;;;6.36;94.88;152993.63;4981296;28;21002;-87
2022/11/23 10:08:32;;;;;;;3.30;2.17;;;;;;;6.35;96.55;152991.06;4979167;28;20460;-87
2022/11/23 10:11:31;;;;;;;5.30;2.97;;;;;;;6.40;96.22;153003.97;4993768;28;20453;-86
2022/11/23 10:14:28;;;;;;;5.50;2.27;;;;;;;6.53;93.71;153037.50;4992965;28;20485;-86
2022/11/23 10:17:20;;;;;;;2.53;1.70;;;;;;;6.49;94.65;153027.16;4980905;28;20448;-86
2022/11/23 10:20:20;;;;;;;3.93;2.00;;;;;;;6.39;94.21;153001.38;4994690;28;20765;-87
2022/11/23 10:23:09;;;;;;;3.23;1.93;;;;;;;6.38;93.71;152998.81;4994500;28;20496;-87
2022/11/23 10:25:55;;;;;;;2.50;1.80;;;;;;;6.44;92.96;153014.28;4993531;28;20464;-87
2022/11/23 10:28:40;;;;;;;4.07;1.97;;;;;;;6.37;93.86;152997.53;4993937;28;20432;-86
2022/11/23 10:31:28;;;;;;;3.17;2.60;;;;;;;6.41;92.55;153006.53;4994384;28;20405;-87
2022/11/23 10:34:16;;;;;;;3.77;2.47;;;;;;;6.46;92.55;153019.47;4991700;28;20436;-87
2022/11/23 10:37:02;;;;;;;3.33;2.27;;;;;;;6.58;90.95;153051.72;4991575;28;20528;-87
2022/11/23 10:39:47;;;;;;;4.23;2.37;;;;;;;6.56;91.28;153045.25;4994426;28;20414;-87
2022/11/23 10:42:38;;;;;;;3.30;2.20;;;;;;;6.69;90.31;153080.13;4994484;28;20516;-87
2022/11/23 10:45:26;;;;;;;3.93;2.57;;;;;;;6.80;90.30;153105.91;4993665;28;20489;-87
2022/11/23 10:48:11;;;;;;;4.40;3.10;;;;;;;6.62;91.22;153060.72;4995589;28;20935;-87
2022/11/23 10:51:15;;;;;;;5.30;2.70;;;;;;;6.69;90.13;153080.13;4999227;28;20441;-87
2022/11/23 10:54:01;;;;;;;5.20;2.60;;;;;;;6.62;90.48;153060.72;5003778;28;20853;-87
2022/11/23 10:56:48;;;;;;;3.90;2.90;;;;;;;6.77;90.47;153099.47;4994194;28;20500;-87
2022/11/23 10:59:36;;;;;;;4.83;2.50;;;;;;;6.90;90.40;153133.03;4997924;28;20780;-87
2022/11/23 11:02:21;;;;;;;4.13;3.10;;;;;;;6.81;89.05;153109.78;4981975;28;20549;-87
2022/11/23 11:05:25;;;;;;;3.03;2.60;;;;;;;6.87;86.84;153123.97;4993905;28;20520;-87
2022/11/23 11:08:15;;;;;;;4.13;2.70;;;;;;;6.90;87.17;153133.03;4991836;28;20544;-86
2022/11/23 11:11:03;;;;;;;3.30;2.40;;;;;;;6.90;87.10;153133.03;4994505;28;20446;-86
2022/11/23 11:13:48;;;;;;;4.27;2.50;;;;;;;7.01;86.86;153160.13;4981834;28;20512;-87
2022/11/23 11:16:35;;;;;;;4.00;2.70;;;;;;;7.13;86.28;153191.09;4988072;28;20433;-87
2022/11/23 11:19:25;;;;;;;3.63;2.77;;;;;;;7.02;85.18;153162.69;4980508;28;20424;-87
2022/11/23 11:22:27;;;;;;;2.77;2.50;;;;;;;6.98;86.03;153153.69;4994172;28;21017;-87
2022/11/23 11:25:28;;;;;;;3.07;2.43;;;;;;;6.98;85.54;153153.69;4998506;28;20977;-88
2022/11/23 11:28:23;;;;;;;3.37;2.30;;;;;;;6.97;86.29;153151.09;4984107;28;20551;-87
2022/11/23 11:31:50;;;;;;;3.00;2.03;;;;;;;6.97;83.22;153151.09;4991298;28;20452;-87
2022/11/23 11:34:42;;;;;;;2.83;1.97;;;;;;;7.09;81.64;153182.09;4995659;28;20560;-87
2022/11/23 11:37:32;;;;;;;2.97;1.73;;;;;;;7.10;82.26;153183.34;4993779;28;20455;-87
2022/11/23 11:40:21;;;;;;;3.70;2.70;;;;;;;7.11;85.06;153187.25;4977551;28;20433;-87
2022/11/23 11:43:13;;;;;;;6.33;3.10;;;;;;;7.34;85.99;153246.63;4993868;28;20448;-88
2022/11/23 11:46:01;;;;;;;2.73;2.20;;;;;;;7.32;84.02;153240.19;4996177;28;20477;-87
2022/11/23 11:48:49;;;;;;;6.90;2.60;;;;;;;7.24;83.00;153220.81;4966683;28;20516;-88
2022/11/23 11:51:39;;;;;;;2.50;2.20;;;;;;;7.10;83.68;153183.34;4975245;28;20489;-88
2022/11/23 11:54:27;;;;;;;3.47;2.37;;;;;;;7.19;81.37;153207.91;4976571;28;20504;-87
2022/11/23 11:57:17;;;;;;;4.77;2.63;;;;;;;7.23;81.60;153218.22;4984699;28;20449;-86
2022/11/23 12:00:10;;;;;;;2.40;2.03;;;;;;;7.29;80.50;153233.72;4995974;28;20425;-87
2022/11/23 12:03:03;;;;;;;2.47;1.80;;;;;;;7.41;81.39;153262.16;4995723;28;20464;-87
2022/11/23 12:05:50;;;;;;;2.53;1.60;;;;;;;7.41;80.45;153262.16;4996268;28;20561;-87
2022/11/23 12:08:41;;;;;;;2.20;1.77;;;;;;;7.45;80.28;153273.75;4995776;28;20520;-87
2022/11/23 12:11:26;;;;;;;2.23;1.77;;;;;;;7.30;81.34;153235.03;4995335;28;20477;-86
2022/11/23 12:14:27;;;;;;;3.43;1.87;;;;;;;7.36;80.56;153250.50;4984174;28;20586;-87
2022/11/23 12:17:35;;;;;;;2.90;1.80;;;;;;;7.58;79.13;153306.03;4991505;28;20853;-85
2022/11/23 12:20:24;;;;;;;4.50;1.80;;;;;;;7.50;78.88;153286.66;4981781;28;20444;-86
2022/11/23 12:23:17;;;;;;;3.33;1.70;;;;;;;7.49;78.39;153284.13;4995981;28;20860;-86
2022/11/23 12:26:17;;;;;;;3.67;1.60;;;;;;;7.49;78.77;153282.81;4976155;28;20454;-86
2022/11/23 12:29:19;;;;;;;2.80;1.43;;;;;;;7.51;78.10;153289.28;4977414;28;20456;-86
2022/11/23 12:32:12;;;;;;;4.73;2.00;;;;;;;7.51;77.47;153287.97;4989603;28;20457;-86
2022/11/23 12:35:25;;;;;;;2.00;1.43;;;;;;;7.58;77.01;153306.03;4996072;28;20572;-86
2022/11/23 12:38:19;;;;;;;2.53;1.30;;;;;;;7.58;77.89;153306.03;4977642;28;20790;-86
2022/11/23 12:41:18;;;;;;;1.43;1.10;;;;;;;7.49;78.32;153282.81;4986019;28;20553;-87
2022/11/23 12:44:25;;;;;;;1.60;1.30;;;;;;;7.50;78.56;153285.38;4991038;28;20940;-87
2022/11/23 12:47:16;;;;;;;2.30;1.43;;;;;;;7.43;79.96;153268.59;4992685;28;20437;-86
2022/11/23 12:50:14;;;;;;;2.10;1.23;;;;;;;7.52;80.48;153291.81;4994049;28;20541;-86
2022/11/23 12:53:05;;;;;;;2.70;1.60;;;;;;;7.56;81.13;153302.19;4991938;28;20464;-86
2022/11/23 12:55:55;;;;;;;2.20;1.40;;;;;;;7.52;80.53;153290.56;4993082;28;20410;-86
2022/11/23 12:58:41;;;;;;;2.67;1.43;;;;;;;7.51;81.28;153287.97;4992094;28;22683;-86
2022/11/23 13:01:31;;;;;;;3.57;1.63;;;;;;;7.56;80.43;153300.88;4991914;28;20495;-86
2022/11/23 13:04:52;;;;;;;3.17;1.40;;;;;;;7.54;80.55;153295.72;4992859;28;20426;-86